Time;durP1;ratioP1;P1;durP2;ratioP2;P2;SDS_P1;SDS_P2;PMS_P1;PMS_P2;Temp;Humidity;BMP_temperature;BMP_pressure;BME280_temperature;BME280_humidity;BME280_pressure;Samples;Min_cycle;Max_cycle;Signal;HPM_P1;HPM_P2
2021/07/11 00:00:36;;;;;;;5.30;2.03;;;;;;;;;;5026627;28;20025;-72
2021/07/11 00:03:03;;;;;;;11.05;2.40;;;;;;;;;;5026571;28;20533;-72
2021/07/11 00:05:29;;;;;;;4.47;2.25;;;;;;;;;;5025250;28;20488;-73
2021/07/11 00:07:55;;;;;;;6.00;2.42;;;;;;;;;;5026278;28;20103;-72
2021/07/11 00:10:22;;;;;;;4.97;2.55;;;;;;;;;;5026323;28;20531;-72
2021/07/11 00:12:48;;;;;;;5.57;2.20;;;;;;;;;;5026264;28;20037;-72
2021/07/11 00:15:16;;;;;;;6.07;2.13;;;;;;;;;;5026556;28;20087;-73
2021/07/11 00:17:43;;;;;;;5.72;2.28;;;;;;;;;;5025314;28;20033;-73
2021/07/11 00:20:10;;;;;;;5.75;2.30;;;;;;;;;;5026281;28;20045;-73
2021/07/11 00:22:36;;;;;;;4.40;2.13;;;;;;;;;;5026463;28;20033;-72
2021/07/11 00:25:04;;;;;;;6.03;2.10;;;;;;;;;;5025997;28;20026;-72
2021/07/11 00:27:30;;;;;;;6.38;2.30;;;;;;;;;;5025683;28;20025;-72
2021/07/11 00:29:57;;;;;;;6.65;2.60;;;;;;;;;;5026049;28;20029;-73
2021/07/11 00:32:23;;;;;;;5.57;2.40;;;;;;;;;;5025896;28;20624;-73
2021/07/11 00:34:49;;;;;;;9.50;2.75;;;;;;;;;;5025879;28;20036;-72
2021/07/11 00:37:15;;;;;;;6.75;2.50;;;;;;;;;;5025608;28;20555;-72
2021/07/11 00:39:41;;;;;;;6.05;2.40;;;;;;;;;;5023916;28;20042;-73
2021/07/11 00:42:12;;;;;;;7.32;2.28;;;;;;;;;;5026374;28;20032;-72
2021/07/11 00:44:38;;;;;;;7.13;2.30;;;;;;;;;;5020064;28;20083;-72
2021/07/11 00:47:05;;;;;;;5.13;2.10;;;;;;;;;;5026249;28;20353;-72
2021/07/11 00:49:31;;;;;;;8.70;2.65;;;;;;;;;;5024254;28;20519;-72
2021/07/11 00:51:57;;;;;;;7.18;3.05;;;;;;;;;;5026124;28;20033;-72
2021/07/11 00:54:23;;;;;;;6.03;2.75;;;;;;;;;;5023849;28;20053;-73
2021/07/11 00:56:50;;;;;;;5.57;2.70;;;;;;;;;;5025839;28;20022;-72
2021/07/11 00:59:19;;;;;;;6.63;2.85;;;;;;;;;;5026001;28;20480;-73
2021/07/11 01:02:03;;;;;;;8.10;2.60;;;;;;;;;;5025133;28;20529;-72
2021/07/11 01:04:38;;;;;;;7.38;2.92;;;;;;;;;;5025839;28;20041;-73
2021/07/11 01:07:05;;;;;;;10.52;3.00;;;;;;;;;;5024442;28;20041;-72
2021/07/11 01:09:35;;;;;;;5.03;2.70;;;;;;;;;;5024894;28;20065;-73
2021/07/11 01:12:03;;;;;;;7.05;2.92;;;;;;;;;;5025564;28;20029;-73
2021/07/11 01:14:30;;;;;;;11.63;3.05;;;;;;;;;;5024229;28;20040;-73
2021/07/11 01:16:57;;;;;;;10.77;3.10;;;;;;;;;;5025082;28;20060;-73
2021/07/11 01:19:42;;;;;;;7.15;2.72;;;;;;;;;;5025585;28;20028;-73
2021/07/11 01:22:11;;;;;;;8.68;2.80;;;;;;;;;;5025693;28;20090;-73
2021/07/11 01:24:39;;;;;;;9.52;3.13;;;;;;;;;;5025755;28;20087;-73
2021/07/11 01:27:06;;;;;;;8.75;2.85;;;;;;;;;;5025158;28;20113;-73
2021/07/11 01:29:32;;;;;;;7.15;2.78;;;;;;;;;;5024196;28;20045;-73
2021/07/11 01:31:59;;;;;;;6.93;2.92;;;;;;;;;;5024654;28;20107;-72
2021/07/11 01:34:26;;;;;;;5.60;2.85;;;;;;;;;;5025783;28;20018;-73
2021/07/11 01:36:53;;;;;;;7.90;2.75;;;;;;;;;;5024815;28;20044;-73
2021/07/11 01:39:19;;;;;;;10.25;3.42;;;;;;;;;;5025041;28;20025;-73
2021/07/11 01:41:46;;;;;;;4.93;2.90;;;;;;;;;;5023943;28;20026;-72
2021/07/11 01:44:13;;;;;;;7.10;3.08;;;;;;;;;;5028410;28;20112;-73
2021/07/11 01:46:40;;;;;;;5.70;2.50;;;;;;;;;;5029081;28;20034;-73
2021/07/11 01:49:06;;;;;;;7.18;2.80;;;;;;;;;;5028955;28;20033;-72
2021/07/11 01:51:33;;;;;;;6.07;3.00;;;;;;;;;;5029026;28;20021;-73
2021/07/11 01:53:59;;;;;;;8.38;2.88;;;;;;;;;;5027791;28;20597;-73
2021/07/11 01:56:26;;;;;;;7.00;2.90;;;;;;;;;;5022289;28;20481;-73
2021/07/11 01:58:52;;;;;;;8.98;2.65;;;;;;;;;;5029161;28;20031;-73
2021/07/11 02:01:19;;;;;;;5.93;2.70;;;;;;;;;;5028527;28;20083;-73
2021/07/11 02:03:45;;;;;;;7.03;2.85;;;;;;;;;;5028619;28;20103;-73
2021/07/11 02:06:12;;;;;;;7.55;3.88;;;;;;;;;;5027234;28;20033;-73
2021/07/11 02:08:38;;;;;;;9.30;3.28;;;;;;;;;;5029150;28;20604;-72
2021/07/11 02:11:05;;;;;;;5.85;2.63;;;;;;;;;;5028056;28;20029;-73
2021/07/11 02:13:37;;;;;;;4.25;2.85;;;;;;;;;;5029222;28;20101;-73
2021/07/11 02:16:26;;;;;;;9.68;3.30;;;;;;;;;;5028541;28;20401;-72
2021/07/11 02:18:53;;;;;;;7.22;3.10;;;;;;;;;;5020243;28;20543;-73
2021/07/11 02:21:23;;;;;;;7.25;2.95;;;;;;;;;;5027461;28;20108;-73
2021/07/11 02:23:50;;;;;;;6.68;3.08;;;;;;;;;;5028077;28;20029;-72
2021/07/11 02:26:16;;;;;;;9.85;3.33;;;;;;;;;;5028086;28;20104;-72
2021/07/11 02:28:43;;;;;;;5.35;3.22;;;;;;;;;;5028665;28;20029;-72
2021/07/11 02:31:13;;;;;;;7.13;3.53;;;;;;;;;;5026942;28;20458;-73
2021/07/11 02:33:40;;;;;;;5.32;2.95;;;;;;;;;;5027694;28;20030;-72
2021/07/11 02:36:17;;;;;;;4.78;2.80;;;;;;;;;;5027033;28;20549;-72
2021/07/11 02:39:00;;;;;;;6.18;3.22;;;;;;;;;;5028054;28;20489;-73
2021/07/11 02:41:28;;;;;;;8.95;3.35;;;;;;;;;;5027757;28;20032;-73
2021/07/11 02:43:56;;;;;;;5.90;3.35;;;;;;;;;;5028167;28;20025;-73
2021/07/11 02:46:25;;;;;;;6.70;3.17;;;;;;;;;;5026892;28;20388;-72
2021/07/11 02:48:52;;;;;;;5.40;3.15;;;;;;;;;;5021768;28;20112;-73
2021/07/11 02:51:20;;;;;;;6.40;3.15;;;;;;;;;;5028150;28;20486;-73
2021/07/11 02:53:46;;;;;;;10.48;3.10;;;;;;;;;;5028012;28;20377;-73
2021/07/11 02:56:16;;;;;;;5.50;2.92;;;;;;;;;;5025551;28;20026;-72
2021/07/11 02:58:43;;;;;;;12.13;3.67;;;;;;;;;;5027723;28;20022;-73
2021/07/11 03:01:10;;;;;;;10.00;2.70;;;;;;;;;;5027881;28;20477;-72
2021/07/11 03:03:37;;;;;;;6.22;2.80;;;;;;;;;;5019747;28;20397;-73
2021/07/11 03:06:03;;;;;;;4.88;2.88;;;;;;;;;;5021435;28;20021;-73
2021/07/11 03:08:30;;;;;;;8.48;3.22;;;;;;;;;;5022350;28;20033;-72
2021/07/11 03:10:57;;;;;;;10.00;3.30;;;;;;;;;;5023257;28;20565;-73
2021/07/11 03:13:23;;;;;;;9.85;3.05;;;;;;;;;;5023279;28;20570;-72
2021/07/11 03:15:50;;;;;;;6.13;2.70;;;;;;;;;;5021560;28;20046;-72
2021/07/11 03:18:17;;;;;;;6.78;2.75;;;;;;;;;;5023160;28;20550;-73
2021/07/11 03:20:46;;;;;;;8.02;2.80;;;;;;;;;;5021354;28;20041;-73
2021/07/11 03:23:12;;;;;;;5.45;2.70;;;;;;;;;;5022673;28;20040;-73
2021/07/11 03:25:39;;;;;;;4.63;2.60;;;;;;;;;;5023017;28;20041;-72
2021/07/11 03:28:06;;;;;;;5.57;2.78;;;;;;;;;;5023038;28;20491;-72
2021/07/11 03:30:40;;;;;;;6.22;2.78;;;;;;;;;;5016855;28;20132;-73
2021/07/11 03:33:07;;;;;;;4.53;2.70;;;;;;;;;;5022397;28;20523;-73
2021/07/11 03:35:35;;;;;;;6.88;2.70;;;;;;;;;;5022405;28;20090;-72
2021/07/11 03:38:01;;;;;;;5.38;2.65;;;;;;;;;;5022372;28;20768;-73
2021/07/11 03:40:29;;;;;;;10.95;3.20;;;;;;;;;;5021121;28;20038;-73
2021/07/11 03:42:56;;;;;;;5.18;2.63;;;;;;;;;;5022432;28;20027;-72
2021/07/11 03:45:23;;;;;;;7.70;2.90;;;;;;;;;;5022062;28;20086;-72
2021/07/11 03:47:53;;;;;;;6.93;3.08;;;;;;;;;;5022112;28;20638;-73
2021/07/11 03:50:22;;;;;;;7.90;2.95;;;;;;;;;;5016591;28;20462;-73
2021/07/11 03:52:49;;;;;;;7.15;2.88;;;;;;;;;;5017344;28;20044;-73
2021/07/11 03:55:17;;;;;;;4.82;3.20;;;;;;;;;;5021814;28;20787;-73
2021/07/11 03:57:44;;;;;;;10.02;3.53;;;;;;;;;;5021957;28;20033;-73
2021/07/11 04:00:11;;;;;;;4.15;2.65;;;;;;;;;;5021628;28;20041;-73
2021/07/11 04:02:37;;;;;;;4.95;2.55;;;;;;;;;;5022222;28;20328;-72
2021/07/11 04:05:04;;;;;;;8.20;2.90;;;;;;;;;;5020058;28;20041;-73
2021/07/11 04:07:31;;;;;;;6.05;2.90;;;;;;;;;;5020256;28;20026;-73
2021/07/11 04:09:58;;;;;;;9.77;3.13;;;;;;;;;;5021781;28;20494;-72
2021/07/11 04:12:24;;;;;;;5.20;2.75;;;;;;;;;;5015753;28;20048;-73
2021/07/11 04:14:50;;;;;;;5.85;2.85;;;;;;;;;;5021495;28;20033;-73
2021/07/11 04:17:20;;;;;;;5.47;2.75;;;;;;;;;;5021672;28;20030;-74
2021/07/11 04:19:48;;;;;;;5.53;2.72;;;;;;;;;;5020220;28;20033;-73
2021/07/11 04:22:15;;;;;;;7.40;2.80;;;;;;;;;;5020900;28;20545;-73
2021/07/11 04:24:43;;;;;;;8.98;3.33;;;;;;;;;;5021526;28;20424;-72
2021/07/11 04:27:10;;;;;;;7.82;2.75;;;;;;;;;;5021997;28;20095;-72
2021/07/11 04:29:36;;;;;;;5.88;2.80;;;;;;;;;;5021616;28;20068;-73
2021/07/11 04:32:03;;;;;;;8.98;2.83;;;;;;;;;;5019971;28;20047;-73
2021/07/11 04:34:33;;;;;;;8.23;2.80;;;;;;;;;;5021645;28;20025;-73
2021/07/11 04:37:01;;;;;;;4.60;2.70;;;;;;;;;;5021496;28;20362;-72
2021/07/11 04:39:27;;;;;;;6.03;2.47;;;;;;;;;;5021140;28;20021;-72
2021/07/11 04:41:54;;;;;;;8.18;3.50;;;;;;;;;;5020041;28;20047;-72
2021/07/11 04:44:20;;;;;;;8.38;3.05;;;;;;;;;;5020826;28;20112;-72
2021/07/11 04:46:47;;;;;;;8.82;3.45;;;;;;;;;;5021287;28;20048;-73
2021/07/11 04:49:13;;;;;;;5.50;2.97;;;;;;;;;;5020959;28;20048;-73
2021/07/11 04:51:39;;;;;;;5.40;2.70;;;;;;;;;;5019776;28;20037;-73
2021/07/11 04:54:06;;;;;;;5.75;2.67;;;;;;;;;;5020350;28;20716;-73
2021/07/11 04:56:32;;;;;;;7.97;2.95;;;;;;;;;;5021430;28;20040;-73
2021/07/11 04:58:58;;;;;;;4.55;2.10;;;;;;;;;;5020992;28;20079;-73
2021/07/11 05:01:25;;;;;;;7.07;2.20;;;;;;;;;;5020476;28;20025;-73
2021/07/11 05:03:52;;;;;;;4.57;2.10;;;;;;;;;;5021044;28;20041;-73
2021/07/11 05:06:18;;;;;;;5.63;2.30;;;;;;;;;;5018368;28;20025;-73
2021/07/11 05:08:44;;;;;;;5.18;2.30;;;;;;;;;;5021330;28;20478;-73
2021/07/11 05:11:11;;;;;;;7.35;2.80;;;;;;;;;;5021068;28;20032;-72
2021/07/11 05:13:37;;;;;;;4.30;2.35;;;;;;;;;;5020524;28;20379;-73
2021/07/11 05:16:03;;;;;;;8.45;2.67;;;;;;;;;;5019317;28;20102;-72
2021/07/11 05:18:30;;;;;;;4.30;2.42;;;;;;;;;;5018664;28;20726;-73
2021/07/11 05:20:56;;;;;;;4.90;2.35;;;;;;;;;;5021172;28;20026;-73
2021/07/11 05:23:22;;;;;;;3.10;2.15;;;;;;;;;;5017383;28;20060;-73
2021/07/11 05:25:48;;;;;;;6.80;2.53;;;;;;;;;;5012212;28;20486;-72
2021/07/11 05:28:17;;;;;;;5.30;2.42;;;;;;;;;;5020943;28;20036;-72
2021/07/11 05:30:43;;;;;;;6.93;2.60;;;;;;;;;;5019377;28;20029;-73
2021/07/11 05:33:09;;;;;;;5.05;2.22;;;;;;;;;;5017929;28;20037;-73
2021/07/11 05:35:36;;;;;;;8.95;2.35;;;;;;;;;;5019607;28;20481;-72
2021/07/11 05:38:02;;;;;;;6.43;2.40;;;;;;;;;;5021017;28;20121;-72
2021/07/11 05:40:28;;;;;;;7.30;2.50;;;;;;;;;;5021000;28;20689;-73
2021/07/11 05:42:54;;;;;;;4.75;2.42;;;;;;;;;;5020513;28;20032;-73
2021/07/11 05:45:20;;;;;;;6.93;2.78;;;;;;;;;;5021379;28;20026;-73
2021/07/11 05:47:47;;;;;;;8.80;2.58;;;;;;;;;;5021633;28;20029;-73
2021/07/11 05:50:13;;;;;;;5.80;2.22;;;;;;;;;;5021051;28;20026;-72
2021/07/11 05:52:40;;;;;;;4.95;2.22;;;;;;;;;;5020071;28;20192;-73
2021/07/11 05:55:06;;;;;;;7.28;2.50;;;;;;;;;;5020746;28;20032;-72
2021/07/11 05:57:32;;;;;;;8.10;2.42;;;;;;;;;;5018416;28;20033;-73
2021/07/11 05:59:59;;;;;;;6.22;2.35;;;;;;;;;;5013068;28;20546;-72
2021/07/11 06:02:27;;;;;;;6.20;2.30;;;;;;;;;;5020683;28;20037;-72
2021/07/11 06:04:53;;;;;;;3.22;2.03;;;;;;;;;;5020271;28;20127;-72
2021/07/11 06:07:19;;;;;;;7.55;2.45;;;;;;;;;;5018792;28;20029;-73
2021/07/11 06:09:46;;;;;;;6.72;2.45;;;;;;;;;;5016862;28;20159;-73
2021/07/11 06:12:12;;;;;;;5.00;2.10;;;;;;;;;;5012879;28;20041;-72
2021/07/11 06:14:38;;;;;;;6.47;2.53;;;;;;;;;;5020185;28;20349;-72
2021/07/11 06:17:04;;;;;;;5.00;2.28;;;;;;;;;;5018487;28;20042;-73
2021/07/11 06:19:30;;;;;;;4.07;2.03;;;;;;;;;;5020258;28;20030;-73
2021/07/11 06:21:56;;;;;;;4.18;2.20;;;;;;;;;;5015805;28;20025;-72
2021/07/11 06:24:23;;;;;;;6.30;2.58;;;;;;;;;;5021979;28;20041;-72
2021/07/11 06:26:49;;;;;;;6.13;2.83;;;;;;;;;;5018371;28;20112;-73
2021/07/11 06:29:15;;;;;;;7.13;2.42;;;;;;;;;;5012843;28;20021;-73
2021/07/11 06:31:41;;;;;;;3.45;2.10;;;;;;;;;;5020917;28;20037;-72
2021/07/11 06:34:07;;;;;;;4.65;2.50;;;;;;;;;;5022801;28;20090;-72
2021/07/11 06:36:34;;;;;;;6.10;2.40;;;;;;;;;;5022244;28;20028;-72
2021/07/11 06:39:00;;;;;;;6.07;2.50;;;;;;;;;;5023157;28;20074;-72
2021/07/11 06:41:26;;;;;;;5.00;2.30;;;;;;;;;;5022949;28;20028;-73
2021/07/11 06:43:53;;;;;;;7.13;2.80;;;;;;;;;;5022295;28;20026;-73
2021/07/11 06:46:19;;;;;;;5.90;2.22;;;;;;;;;;5022915;28;20037;-73
2021/07/11 06:48:45;;;;;;;5.18;2.30;;;;;;;;;;5023682;28;20037;-76
2021/07/11 06:51:11;;;;;;;4.50;2.40;;;;;;;;;;5023776;28;20034;-76
2021/07/11 06:53:38;;;;;;;6.28;2.20;;;;;;;;;;5023481;28;20033;-76
2021/07/11 06:56:05;;;;;;;3.67;2.35;;;;;;;;;;5022957;28;20028;-77
2021/07/11 06:58:32;;;;;;;8.75;2.65;;;;;;;;;;5022009;28;20021;-76
2021/07/11 07:00:59;;;;;;;5.43;2.58;;;;;;;;;;5023204;28;20041;-76
2021/07/11 07:03:25;;;;;;;4.57;2.40;;;;;;;;;;5023051;28;20025;-75
2021/07/11 07:05:52;;;;;;;7.55;2.60;;;;;;;;;;5022698;28;20033;-75
2021/07/11 07:08:18;;;;;;;4.95;2.47;;;;;;;;;;5021522;28;20098;-76
2021/07/11 07:10:44;;;;;;;6.70;2.47;;;;;;;;;;5022704;28;20123;-75
2021/07/11 07:13:10;;;;;;;6.20;2.35;;;;;;;;;;5008779;28;20111;-73
2021/07/11 07:15:36;;;;;;;5.15;2.30;;;;;;;;;;5007056;28;20104;-73
2021/07/11 07:18:03;;;;;;;6.72;2.40;;;;;;;;;;5009611;28;20032;-73
2021/07/11 07:20:29;;;;;;;6.35;2.83;;;;;;;;;;5008269;28;20025;-74
2021/07/11 07:22:55;;;;;;;6.43;2.45;;;;;;;;;;5011470;28;20032;-73
2021/07/11 07:25:21;;;;;;;4.28;2.38;;;;;;;;;;5010083;28;20081;-74
2021/07/11 07:27:47;;;;;;;4.78;2.20;;;;;;;;;;5009779;28;20036;-74
2021/07/11 07:30:21;;;;;;;4.78;2.03;;;;;;;;;;5011777;28;20599;-73
2021/07/11 07:32:48;;;;;;;7.78;2.17;;;;;;;;;;5008831;28;20030;-74
2021/07/11 07:35:15;;;;;;;8.05;2.35;;;;;;;;;;5009714;28;20034;-74
2021/07/11 07:37:43;;;;;;;4.82;2.28;;;;;;;;;;5015591;28;20074;-74
2021/07/11 07:40:09;;;;;;;13.00;2.60;;;;;;;;;;5027611;28;20038;-73
2021/07/11 07:42:36;;;;;;;3.25;2.20;;;;;;;;;;5017793;28;20030;-74
2021/07/11 07:45:02;;;;;;;5.32;2.30;;;;;;;;;;5007294;28;20470;-72
2021/07/11 07:47:28;;;;;;;5.65;2.47;;;;;;;;;;5021357;28;20029;-75
2021/07/11 07:49:55;;;;;;;3.90;1.98;;;;;;;;;;5015534;28;20105;-75
2021/07/11 07:52:21;;;;;;;3.47;1.90;;;;;;;;;;5010607;28;20721;-73
2021/07/11 07:54:47;;;;;;;4.45;1.80;;;;;;;;;;5007382;28;20029;-73
2021/07/11 07:57:15;;;;;;;5.95;2.17;;;;;;;;;;5005404;28;20021;-73
2021/07/11 07:59:42;;;;;;;5.38;2.30;;;;;;;;;;5012076;28;20539;-73
2021/07/11 08:02:08;;;;;;;3.35;2.08;;;;;;;;;;5024310;28;20034;-72
2021/07/11 08:04:34;;;;;;;8.27;2.20;;;;;;;;;;5023755;28;20070;-73
2021/07/11 08:07:00;;;;;;;3.28;1.90;;;;;;;;;;5029101;28;20112;-73
2021/07/11 08:09:27;;;;;;;2.88;1.83;;;;;;;;;;5021445;28;20049;-73
2021/07/11 08:11:53;;;;;;;5.28;2.20;;;;;;;;;;5027488;28;20029;-75
2021/07/11 08:14:19;;;;;;;4.00;2.05;;;;;;;;;;5023444;28;20022;-73
2021/07/11 08:16:45;;;;;;;7.00;2.30;;;;;;;;;;5027314;28;20045;-74
2021/07/11 08:19:12;;;;;;;7.03;2.55;;;;;;;;;;5020992;28;20026;-73
2021/07/11 08:21:38;;;;;;;4.72;2.63;;;;;;;;;;5019218;28;20037;-73
2021/07/11 08:24:04;;;;;;;8.20;2.40;;;;;;;;;;5015058;28;20029;-74
2021/07/11 08:26:31;;;;;;;3.85;2.30;;;;;;;;;;5028290;28;20829;-73
2021/07/11 08:28:58;;;;;;;6.05;2.28;;;;;;;;;;5031131;28;20078;-73
2021/07/11 08:31:25;;;;;;;5.13;2.25;;;;;;;;;;5026338;28;20113;-73
2021/07/11 08:33:51;;;;;;;3.42;2.15;;;;;;;;;;5021198;28;20045;-74
2021/07/11 08:36:17;;;;;;;5.18;2.45;;;;;;;;;;5021757;28;20032;-73
2021/07/11 08:38:43;;;;;;;9.27;2.45;;;;;;;;;;5012681;28;20053;-73
2021/07/11 08:41:09;;;;;;;4.93;2.38;;;;;;;;;;5021225;28;20492;-73
2021/07/11 08:43:41;;;;;;;5.93;2.30;;;;;;;;;;5020177;28;20039;-73
2021/07/11 08:46:07;;;;;;;6.97;2.80;;;;;;;;;;5021155;28;20359;-73
2021/07/11 08:48:33;;;;;;;4.38;2.30;;;;;;;;;;5010947;28;20040;-73
2021/07/11 08:51:01;;;;;;;9.23;2.60;;;;;;;;;;5007903;28;20611;-73
2021/07/11 08:53:27;;;;;;;6.97;2.30;;;;;;;;;;5012848;28;20068;-73
2021/07/11 08:55:53;;;;;;;4.03;2.10;;;;;;;;;;5008175;28;20028;-74
2021/07/11 08:58:20;;;;;;;3.42;2.20;;;;;;;;;;5006819;28;20018;-74
2021/07/11 09:00:47;;;;;;;7.43;2.58;;;;;;;;;;5014303;28;20060;-73
2021/07/11 09:03:14;;;;;;;6.57;2.53;;;;;;;;;;5012526;28;20112;-74
2021/07/11 09:05:40;;;;;;;4.25;2.25;;;;;;;;;;5019327;28;20108;-73
2021/07/11 09:08:08;;;;;;;7.55;2.60;;;;;;;;;;5007746;28;20056;-73
2021/07/11 09:10:35;;;;;;;4.25;2.22;;;;;;;;;;5008827;28;20341;-73
2021/07/11 09:13:01;;;;;;;3.28;2.10;;;;;;;;;;5009305;28;20497;-73
2021/07/11 09:15:31;;;;;;;5.50;2.70;;;;;;;;;;5005338;28;20046;-73
2021/07/11 09:17:58;;;;;;;6.35;2.50;;;;;;;;;;5004255;28;20700;-73
2021/07/11 09:20:24;;;;;;;6.32;2.55;;;;;;;;;;5000996;28;20500;-73
2021/07/11 09:23:01;;;;;;;6.78;2.67;;;;;;;;;;5005723;28;20164;-73
2021/07/11 09:25:27;;;;;;;6.63;2.20;;;;;;;;;;5020068;28;20398;-73
2021/07/11 09:27:54;;;;;;;4.10;2.33;;;;;;;;;;5026849;28;20030;-73
2021/07/11 09:30:20;;;;;;;6.55;2.67;;;;;;;;;;5028435;28;20128;-74
2021/07/11 09:32:50;;;;;;;7.63;2.25;;;;;;;;;;5024175;28;20037;-74
2021/07/11 09:35:18;;;;;;;5.82;2.13;;;;;;;;;;5016084;28;20050;-73
2021/07/11 09:37:48;;;;;;;4.47;2.25;;;;;;;;;;5020379;28;20029;-73
2021/07/11 09:40:15;;;;;;;4.38;2.45;;;;;;;;;;5020219;28;20433;-73
2021/07/11 09:42:43;;;;;;;4.65;2.17;;;;;;;;;;5018976;28;20041;-74
2021/07/11 09:45:15;;;;;;;6.63;2.60;;;;;;;;;;5020601;28;20029;-73
2021/07/11 09:47:41;;;;;;;4.78;2.15;;;;;;;;;;5014826;28;20033;-74
2021/07/11 09:50:13;;;;;;;4.65;2.17;;;;;;;;;;5020492;28;20024;-73
2021/07/11 09:52:43;;;;;;;9.73;2.70;;;;;;;;;;5019002;28;20041;-74
2021/07/11 09:55:10;;;;;;;3.38;2.03;;;;;;;;;;5020517;28;20120;-74
2021/07/11 09:57:37;;;;;;;5.57;2.22;;;;;;;;;;5019871;28;20041;-73
2021/07/11 10:00:13;;;;;;;6.15;2.60;;;;;;;;;;5020585;28;20095;-73
2021/07/11 10:02:40;;;;;;;5.22;2.53;;;;;;;;;;5018759;28;20083;-74
2021/07/11 10:05:07;;;;;;;6.43;2.22;;;;;;;;;;5021880;28;20273;-74
2021/07/11 10:07:36;;;;;;;7.18;3.17;;;;;;;;;;5023756;28;20036;-74
2021/07/11 10:10:04;;;;;;;6.40;2.50;;;;;;;;;;5024712;28;20024;-73
2021/07/11 10:12:30;;;;;;;4.85;2.25;;;;;;;;;;5021168;28;20038;-73
2021/07/11 10:14:56;;;;;;;6.47;2.13;;;;;;;;;;5023491;28;20048;-73
2021/07/11 10:17:22;;;;;;;5.60;2.60;;;;;;;;;;5022626;28;20534;-73
2021/07/11 10:19:50;;;;;;;5.15;2.40;;;;;;;;;;5020295;28;20034;-73
2021/07/11 10:22:17;;;;;;;3.97;2.60;;;;;;;;;;5022057;28;20211;-74
2021/07/11 10:24:46;;;;;;;4.93;2.38;;;;;;;;;;5021282;28;20052;-74
2021/07/11 10:27:18;;;;;;;4.25;2.20;;;;;;;;;;5022602;28;20576;-73
2021/07/11 10:29:46;;;;;;;4.78;2.22;;;;;;;;;;5020848;28;20156;-74
2021/07/11 10:32:21;;;;;;;5.70;2.80;;;;;;;;;;5015665;28;20037;-73
2021/07/11 10:34:47;;;;;;;6.90;2.60;;;;;;;;;;5022451;28;20068;-73
2021/07/11 10:37:15;;;;;;;8.23;2.40;;;;;;;;;;5023347;28;20037;-73
2021/07/11 10:39:41;;;;;;;3.75;2.38;;;;;;;;;;5023740;28;20033;-72
2021/07/11 10:42:09;;;;;;;7.97;2.15;;;;;;;;;;5024007;28;20034;-73
2021/07/11 10:44:36;;;;;;;5.07;2.45;;;;;;;;;;5021842;28;20492;-74
2021/07/11 10:47:03;;;;;;;6.68;2.42;;;;;;;;;;5023335;28;20029;-74
2021/07/11 10:49:34;;;;;;;5.30;2.20;;;;;;;;;;5023755;28;20477;-73
2021/07/11 10:52:10;;;;;;;5.75;2.00;;;;;;;;;;5021811;28;20524;-74
2021/07/11 10:54:36;;;;;;;5.75;2.40;;;;;;;;;;5017622;28;20041;-73
2021/07/11 10:57:08;;;;;;;3.83;2.20;;;;;;;;;;5023041;28;20493;-73
2021/07/11 10:59:38;;;;;;;5.03;2.08;;;;;;;;;;5016644;28;20497;-73
2021/07/11 11:02:05;;;;;;;5.82;2.38;;;;;;;;;;5023270;28;20034;-74
2021/07/11 11:04:31;;;;;;;10.57;2.90;;;;;;;;;;5022943;28;20134;-75
2021/07/11 11:07:12;;;;;;;10.23;6.25;;;;;;;;;;5021127;28;20025;-73
2021/07/11 11:09:39;;;;;;;5.07;3.55;;;;;;;;;;5022327;28;20108;-72
2021/07/11 11:12:24;;;;;;;4.75;2.28;;;;;;;;;;5023239;28;20029;-77
2021/07/11 11:14:51;;;;;;;5.82;2.70;;;;;;;;;;5023419;28;20429;-73
2021/07/11 11:17:27;;;;;;;3.92;2.10;;;;;;;;;;5022872;28;20037;-72
2021/07/11 11:19:54;;;;;;;6.93;2.35;;;;;;;;;;5021568;28;20025;-73
2021/07/11 11:22:20;;;;;;;5.55;2.53;;;;;;;;;;5023354;28;20276;-73
2021/07/11 11:24:46;;;;;;;8.32;2.78;;;;;;;;;;5023426;28;20029;-73
2021/07/11 11:27:12;;;;;;;3.97;2.33;;;;;;;;;;5023423;28;20512;-73
2021/07/11 11:29:39;;;;;;;4.30;2.20;;;;;;;;;;5022431;28;20037;-76
2021/07/11 11:32:14;;;;;;;8.40;2.47;;;;;;;;;;5021503;28;20047;-75
2021/07/11 11:34:40;;;;;;;4.57;2.53;;;;;;;;;;5023129;28;20025;-74
2021/07/11 11:37:06;;;;;;;4.40;2.17;;;;;;;;;;5023196;28;20018;-73
2021/07/11 11:39:36;;;;;;;4.15;2.33;;;;;;;;;;5023745;28;20186;-74
2021/07/11 11:42:04;;;;;;;6.15;2.80;;;;;;;;;;5022583;28;20021;-74
2021/07/11 11:44:30;;;;;;;5.93;2.40;;;;;;;;;;5023099;28;20036;-73
2021/07/11 11:47:00;;;;;;;5.45;2.55;;;;;;;;;;5023141;28;20026;-73
2021/07/11 11:49:28;;;;;;;4.88;2.28;;;;;;;;;;5023109;28;20401;-74
2021/07/11 11:51:55;;;;;;;7.78;2.90;;;;;;;;;;5023319;28;20104;-74
2021/07/11 11:54:25;;;;;;;4.95;2.55;;;;;;;;;;5021191;28;20105;-74
2021/07/11 11:56:51;;;;;;;3.50;2.22;;;;;;;;;;5022636;28;20037;-76
2021/07/11 11:59:17;;;;;;;6.72;2.67;;;;;;;;;;5022488;28;20028;-73
2021/07/11 12:01:44;;;;;;;9.50;3.00;;;;;;;;;;5022699;28;20094;-74
2021/07/11 12:04:14;;;;;;;4.10;2.45;;;;;;;;;;5021353;28;20412;-73
2021/07/11 12:06:41;;;;;;;5.68;2.75;;;;;;;;;;5022807;28;20044;-74
2021/07/11 12:09:08;;;;;;;4.15;2.25;;;;;;;;;;5022796;28;20032;-75
2021/07/11 12:11:34;;;;;;;4.60;2.50;;;;;;;;;;5022729;28;20807;-73
2021/07/11 12:14:16;;;;;;;5.72;2.35;;;;;;;;;;5021441;28;20030;-72
2021/07/11 12:16:43;;;;;;;5.57;2.40;;;;;;;;;;5019463;28;20041;-73
2021/07/11 12:19:10;;;;;;;5.75;2.35;;;;;;;;;;5022858;28;20091;-73
2021/07/11 12:21:40;;;;;;;5.30;2.63;;;;;;;;;;5022764;28;20043;-74
2021/07/11 12:24:11;;;;;;;6.55;2.75;;;;;;;;;;5021220;28;20145;-73
2021/07/11 12:26:41;;;;;;;3.67;2.28;;;;;;;;;;5022165;28;20065;-73
2021/07/11 12:29:08;;;;;;;5.43;2.30;;;;;;;;;;5021924;28;20045;-73
2021/07/11 12:31:35;;;;;;;5.00;2.25;;;;;;;;;;5021981;28;20527;-73
2021/07/11 12:34:02;;;;;;;7.45;2.53;;;;;;;;;;5020294;28;20037;-73
2021/07/11 12:36:29;;;;;;;10.50;3.17;;;;;;;;;;5022086;28;20018;-73
2021/07/11 12:38:57;;;;;;;6.13;2.30;;;;;;;;;;5021862;28;20022;-74
2021/07/11 12:41:26;;;;;;;6.53;2.35;;;;;;;;;;5022389;28;20026;-73
2021/07/11 12:44:02;;;;;;;24.90;4.47;;;;;;;;;;5019932;28;20030;-74
2021/07/11 12:46:28;;;;;;;8.82;2.63;;;;;;;;;;5021198;28;20083;-73
2021/07/11 12:48:56;;;;;;;13.55;3.17;;;;;;;;;;5022056;28;20057;-74
2021/07/11 12:51:24;;;;;;;8.18;2.65;;;;;;;;;;5022325;28;20028;-73
2021/07/11 12:53:53;;;;;;;22.48;4.65;;;;;;;;;;5020216;28;20041;-73
2021/07/11 12:56:21;;;;;;;6.80;2.78;;;;;;;;;;5021597;28;20183;-73
2021/07/11 12:58:47;;;;;;;24.85;4.05;;;;;;;;;;5021449;28;20021;-73
2021/07/11 13:01:14;;;;;;;13.15;3.25;;;;;;;;;;5021195;28;20017;-73
2021/07/11 13:03:41;;;;;;;27.92;3.88;;;;;;;;;;5022324;28;20033;-74
2021/07/11 13:06:13;;;;;;;5.88;2.47;;;;;;;;;;5020080;28;20109;-73
2021/07/11 13:08:39;;;;;;;8.90;2.75;;;;;;;;;;5021916;28;20041;-73
2021/07/11 13:11:05;;;;;;;10.85;3.15;;;;;;;;;;5021244;28;20026;-73
2021/07/11 13:13:31;;;;;;;14.68;3.50;;;;;;;;;;5021095;28;20346;-73
2021/07/11 13:15:58;;;;;;;7.15;2.70;;;;;;;;;;5018888;28;20049;-73
2021/07/11 13:18:24;;;;;;;7.88;2.85;;;;;;;;;;5021562;28;20049;-73
2021/07/11 13:20:50;;;;;;;8.00;2.83;;;;;;;;;;5021561;28;20030;-73
2021/07/11 13:23:16;;;;;;;5.95;2.80;;;;;;;;;;5021464;28;20021;-73
2021/07/11 13:25:42;;;;;;;7.25;2.53;;;;;;;;;;5020461;28;20667;-74
2021/07/11 13:28:10;;;;;;;4.90;2.10;;;;;;;;;;5020024;28;20465;-75
2021/07/11 13:30:36;;;;;;;10.20;3.60;;;;;;;;;;5021376;28;20030;-74
2021/07/11 13:33:03;;;;;;;8.43;2.58;;;;;;;;;;5021194;28;20682;-75
2021/07/11 13:35:29;;;;;;;6.43;2.70;;;;;;;;;;5020873;28;20060;-74
2021/07/11 13:37:55;;;;;;;4.25;2.30;;;;;;;;;;5021157;28;20033;-74
2021/07/11 13:40:22;;;;;;;4.93;2.30;;;;;;;;;;5024626;28;20021;-74
2021/07/11 13:42:49;;;;;;;4.65;2.90;;;;;;;;;;5023861;28;20025;-74
2021/07/11 13:45:19;;;;;;;8.30;2.55;;;;;;;;;;5025053;28;20083;-74
2021/07/11 13:47:46;;;;;;;4.32;2.10;;;;;;;;;;5024849;28;20056;-74
2021/07/11 13:50:13;;;;;;;8.95;2.60;;;;;;;;;;5023828;28;20532;-74
2021/07/11 13:52:40;;;;;;;4.35;2.33;;;;;;;;;;5025033;28;20036;-74
2021/07/11 13:55:06;;;;;;;5.18;2.42;;;;;;;;;;5017841;28;20031;-74
2021/07/11 13:57:33;;;;;;;3.35;2.30;;;;;;;;;;5027916;28;20064;-74
2021/07/11 13:59:59;;;;;;;12.80;3.05;;;;;;;;;;5022889;28;20032;-74
2021/07/11 14:02:26;;;;;;;5.65;2.80;;;;;;;;;;5026222;28;20032;-73
2021/07/11 14:04:53;;;;;;;4.72;2.28;;;;;;;;;;5026925;28;20596;-74
2021/07/11 14:07:21;;;;;;;9.05;2.67;;;;;;;;;;5023719;28;20515;-74
2021/07/11 14:09:47;;;;;;;5.93;2.45;;;;;;;;;;5022595;28;20022;-74
2021/07/11 14:12:13;;;;;;;5.15;2.60;;;;;;;;;;5026566;28;20515;-74
2021/07/11 14:14:40;;;;;;;8.25;4.30;;;;;;;;;;5027826;28;20037;-74
2021/07/11 14:17:06;;;;;;;10.43;6.53;;;;;;;;;;5027081;28;20033;-74
2021/07/11 14:19:33;;;;;;;41.72;24.70;;;;;;;;;;5025911;28;20033;-74
2021/07/11 14:21:59;;;;;;;26.10;9.65;;;;;;;;;;5027181;28;20021;-74
2021/07/11 14:24:25;;;;;;;14.00;8.05;;;;;;;;;;5026817;28;20021;-74
2021/07/11 14:26:52;;;;;;;28.52;16.70;;;;;;;;;;5026852;28;20197;-74
2021/07/11 14:29:18;;;;;;;18.17;9.48;;;;;;;;;;5026576;28;20080;-74
2021/07/11 14:31:45;;;;;;;16.00;10.05;;;;;;;;;;5025053;28;20389;-74
2021/07/11 14:34:11;;;;;;;10.98;7.68;;;;;;;;;;5022614;28;20470;-73
2021/07/11 14:36:38;;;;;;;7.63;5.28;;;;;;;;;;5023500;28;20064;-74
2021/07/11 14:39:05;;;;;;;13.63;7.15;;;;;;;;;;5023755;28;20033;-74
2021/07/11 14:41:31;;;;;;;11.18;4.10;;;;;;;;;;5023402;28;20036;-74